createdAt,value
2022-10-24T00:01:55.023Z,93
2022-10-24T00:05:20.207Z,93
2022-10-24T00:08:45.324Z,93
2022-10-24T00:12:10.543Z,93
2022-10-24T00:15:35.626Z,94
2022-10-24T00:19:00.772Z,94
2022-10-24T00:22:25.959Z,93
2022-10-24T00:25:51.107Z,94
2022-10-24T00:29:16.249Z,94
2022-10-24T00:32:41.551Z,94
2022-10-24T00:36:06.544Z,94
2022-10-24T00:39:31.723Z,94
2022-10-24T00:42:56.865Z,94
2022-10-24T00:46:22.018Z,94
2022-10-24T00:49:47.157Z,94
2022-10-24T00:53:12.312Z,94
2022-10-24T00:56:37.485Z,94
2022-10-24T01:00:02.641Z,94
2022-10-24T01:03:27.789Z,94
2022-10-24T01:06:52.934Z,94
2022-10-24T01:10:18.084Z,94
2022-10-24T01:13:43.284Z,94
2022-10-24T01:17:08.399Z,94
2022-10-24T01:20:33.551Z,94
2022-10-24T01:23:58.693Z,94
2022-10-24T01:27:23.910Z,94
2022-10-24T01:30:49.086Z,94
2022-10-24T01:34:14.201Z,93
2022-10-24T01:37:39.344Z,93
2022-10-24T01:41:04.500Z,93
2022-10-24T01:44:29.644Z,93
2022-10-24T01:47:54.815Z,93
2022-10-24T01:51:19.956Z,93
2022-10-24T01:54:45.158Z,93
2022-10-24T01:58:10.302Z,93
2022-10-24T02:01:35.569Z,93
2022-10-24T02:05:00.667Z,93
2022-10-24T02:08:25.798Z,93
2022-10-24T02:11:50.962Z,93
2022-10-24T02:15:16.114Z,93
2022-10-24T02:18:41.259Z,93
2022-10-24T02:22:06.442Z,93
2022-10-24T02:25:31.578Z,93
2022-10-24T02:28:56.758Z,93
2022-10-24T02:32:21.904Z,93
2022-10-24T02:35:47.141Z,93
2022-10-24T02:39:12.338Z,93
2022-10-24T02:42:37.462Z,93
2022-10-24T02:46:02.617Z,93
2022-10-24T02:49:27.776Z,93
2022-10-24T02:52:52.932Z,93
2022-10-24T02:56:18.110Z,93
2022-10-24T02:59:43.271Z,93
2022-10-24T03:03:08.411Z,93
2022-10-24T03:06:33.584Z,93
2022-10-24T03:09:58.721Z,93
2022-10-24T03:13:23.903Z,93
2022-10-24T03:16:49.025Z,94
2022-10-24T03:20:14.184Z,94
2022-10-24T03:23:39.333Z,94
2022-10-24T03:27:04.469Z,94
2022-10-24T03:30:29.658Z,94
2022-10-24T03:33:54.786Z,94
2022-10-24T03:37:19.950Z,94
2022-10-24T03:44:10.266Z,94
2022-10-24T03:47:35.435Z,94
2022-10-24T03:51:00.576Z,94
2022-10-24T03:54:25.779Z,94
2022-10-24T03:57:50.924Z,94
2022-10-24T04:01:16.217Z,94
2022-10-24T04:04:41.287Z,94
2022-10-24T04:08:06.407Z,93
2022-10-24T04:11:31.576Z,93
2022-10-24T04:14:59.610Z,93
2022-10-24T04:18:21.927Z,93
2022-10-24T04:21:47.120Z,94
2022-10-24T04:25:12.265Z,94
2022-10-24T04:28:37.506Z,94
2022-10-24T04:32:02.675Z,94
2022-10-24T04:35:27.848Z,94
2022-10-24T04:38:53.081Z,94
2022-10-24T04:42:18.177Z,94
2022-10-24T04:45:43.340Z,94
2022-10-24T04:49:08.524Z,94
2022-10-24T04:52:33.681Z,94
2022-10-24T04:55:58.883Z,94
2022-10-24T04:59:23.984Z,94
2022-10-24T05:02:49.241Z,94
2022-10-24T05:06:14.600Z,93
2022-10-24T05:09:39.769Z,94
2022-10-24T05:13:04.960Z,94
2022-10-24T05:16:30.103Z,94
2022-10-24T05:19:55.264Z,94
2022-10-24T05:23:20.431Z,94
2022-10-24T05:26:45.602Z,94
2022-10-24T05:30:10.764Z,94
2022-10-24T05:33:35.883Z,94
2022-10-24T05:37:01.030Z,94
2022-10-24T05:40:26.184Z,94
2022-10-24T05:43:51.367Z,94
2022-10-24T05:47:16.549Z,94
2022-10-24T05:50:41.670Z,94
2022-10-24T05:54:06.876Z,94
2022-10-24T05:57:32.035Z,95
2022-10-24T06:00:57.204Z,95
2022-10-24T06:04:22.389Z,95
2022-10-24T06:07:47.944Z,95
2022-10-24T06:11:12.767Z,95
2022-10-24T06:14:37.865Z,95
2022-10-24T06:18:03.044Z,95
2022-10-24T06:21:28.235Z,95
2022-10-24T06:24:53.392Z,95
2022-10-24T06:28:18.608Z,95
2022-10-24T06:31:43.806Z,94
2022-10-24T06:35:08.998Z,94
2022-10-24T06:38:34.200Z,95
2022-10-24T06:41:59.355Z,95
2022-10-24T06:45:24.714Z,95
2022-10-24T06:48:49.938Z,95
2022-10-24T06:52:15.121Z,95
2022-10-24T06:55:40.296Z,95
2022-10-24T06:59:05.430Z,95
2022-10-24T07:02:30.673Z,95
2022-10-24T07:05:55.794Z,95
2022-10-24T07:09:20.967Z,95
2022-10-24T07:12:46.407Z,95
2022-10-24T07:16:11.348Z,94
2022-10-24T07:19:38.855Z,94
2022-10-24T07:23:03.899Z,94
2022-10-24T07:26:29.077Z,94
2022-10-24T07:29:54.275Z,94
2022-10-24T07:33:19.405Z,94
2022-10-24T07:36:44.571Z,94
2022-10-24T07:40:09.754Z,94
2022-10-24T07:43:34.926Z,94
2022-10-24T07:47:00.123Z,94
2022-10-24T07:50:25.251Z,94
2022-10-24T07:53:50.430Z,94
2022-10-24T07:57:15.581Z,94
2022-10-24T08:00:44.938Z,94
2022-10-24T08:04:05.938Z,94
2022-10-24T08:07:31.059Z,94
2022-10-24T08:10:56.228Z,94
2022-10-24T08:14:21.402Z,94
2022-10-24T08:17:46.550Z,94
2022-10-24T08:21:11.757Z,94
2022-10-24T08:24:36.934Z,94
2022-10-24T08:28:02.916Z,95
2022-10-24T08:31:27.284Z,94
2022-10-24T08:34:52.484Z,94
2022-10-24T08:38:17.729Z,95
2022-10-24T08:41:42.943Z,95
2022-10-24T08:45:08.154Z,95
2022-10-24T08:48:33.378Z,94
2022-10-24T08:51:58.521Z,94
2022-10-24T08:55:44.234Z,94
2022-10-24T08:58:48.922Z,94
2022-10-24T09:02:14.221Z,94
2022-10-24T09:05:39.326Z,94
2022-10-24T09:09:04.503Z,94
2022-10-24T09:12:29.697Z,94
2022-10-24T09:15:54.870Z,93
2022-10-24T09:19:20.066Z,93
2022-10-24T09:22:45.204Z,93
2022-10-24T09:26:10.384Z,93
2022-10-24T09:29:35.612Z,92
2022-10-24T09:33:00.774Z,92
2022-10-24T09:36:25.927Z,92
2022-10-24T09:39:51.091Z,92
2022-10-24T09:43:16.295Z,92
2022-10-24T09:46:41.526Z,92
2022-10-24T09:50:06.685Z,92
2022-10-24T09:53:31.893Z,91
2022-10-24T09:56:57.086Z,91
2022-10-24T10:00:22.342Z,91
2022-10-24T10:03:47.563Z,91
2022-10-24T10:07:12.723Z,92
2022-10-24T10:10:37.899Z,92
2022-10-24T10:14:03.091Z,91
2022-10-24T10:17:28.287Z,90
2022-10-24T10:20:53.528Z,90
2022-10-24T10:24:18.698Z,90
2022-10-24T10:27:44.189Z,90
2022-10-24T10:31:09.094Z,90
2022-10-24T10:34:34.339Z,90
2022-10-24T10:37:59.513Z,89
2022-10-24T10:41:24.687Z,89
2022-10-24T10:44:50.117Z,89
2022-10-24T10:48:15.316Z,89
2022-10-24T10:51:40.453Z,88
2022-10-24T10:55:05.655Z,88
2022-10-24T10:58:30.817Z,88
2022-10-24T11:01:56.073Z,88
2022-10-24T11:05:21.159Z,88
2022-10-24T11:08:46.367Z,87
2022-10-24T11:12:11.585Z,87
2022-10-24T11:15:36.723Z,88
2022-10-24T11:19:01.946Z,87
2022-10-24T11:22:27.125Z,87
2022-10-24T11:25:52.285Z,87
2022-10-24T11:29:17.502Z,88
2022-10-24T11:32:42.810Z,88
2022-10-24T11:36:07.875Z,88
2022-10-24T11:39:33.055Z,87
2022-10-24T11:42:58.271Z,87
2022-10-24T11:46:23.502Z,87
2022-10-24T11:49:48.669Z,87
2022-10-24T11:53:13.900Z,88
2022-10-24T11:56:39.073Z,88
2022-10-24T12:00:04.256Z,88
2022-10-24T12:03:29.458Z,89
2022-10-24T12:06:54.653Z,89
2022-10-24T12:10:19.817Z,89
2022-10-24T12:13:45.008Z,88
2022-10-24T12:17:10.200Z,89
2022-10-24T12:20:35.455Z,89
2022-10-24T12:24:00.633Z,89
2022-10-24T12:27:25.921Z,89
2022-10-24T12:34:16.308Z,90
2022-10-24T12:37:45.887Z,89
2022-10-24T12:41:06.807Z,89
2022-10-24T12:44:31.914Z,89
2022-10-24T12:47:57.161Z,90
2022-10-24T12:51:22.362Z,89
2022-10-24T12:54:47.575Z,90
2022-10-24T12:58:12.757Z,89
2022-10-24T13:01:38.117Z,90
2022-10-24T13:05:03.203Z,89
2022-10-24T13:08:28.434Z,89
2022-10-24T13:11:54.347Z,89
2022-10-24T13:15:18.913Z,89
2022-10-24T13:18:44.140Z,89
2022-10-24T13:22:09.349Z,88
2022-10-24T13:25:34.545Z,89
2022-10-24T13:28:59.772Z,89
2022-10-24T13:32:25.008Z,89
2022-10-24T13:35:50.221Z,89
2022-10-24T13:39:15.435Z,90
2022-10-24T13:42:40.677Z,90
2022-10-24T13:46:09.435Z,90
2022-10-24T13:49:31.148Z,90
2022-10-24T13:52:56.348Z,91
2022-10-24T13:56:21.576Z,91
2022-10-24T13:59:46.784Z,91
2022-10-24T14:03:12.126Z,91
2022-10-24T14:06:37.160Z,91
2022-10-24T14:10:02.416Z,91
2022-10-24T14:13:27.609Z,91
2022-10-24T14:16:52.857Z,91
2022-10-24T14:20:18.094Z,91
2022-10-24T14:23:43.291Z,91
2022-10-24T14:27:08.509Z,91
2022-10-24T15:04:10.663Z,91
2022-10-24T15:07:35.851Z,91
2022-10-24T15:11:01.070Z,91
2022-10-24T15:14:26.284Z,92
2022-10-24T15:17:51.550Z,92
2022-10-24T15:21:16.813Z,92
2022-10-24T15:24:44.358Z,92
2022-10-24T15:28:07.256Z,92
2022-10-24T15:31:32.449Z,91
2022-10-24T15:34:57.690Z,91
2022-10-24T15:38:22.966Z,91
2022-10-24T15:41:48.252Z,91
2022-10-24T15:45:13.406Z,91
2022-10-24T15:48:38.658Z,92
2022-10-24T15:52:03.902Z,91
2022-10-24T15:55:29.151Z,92
2022-10-24T15:58:54.366Z,92
2022-10-24T16:02:20.620Z,92
2022-10-24T16:05:46.057Z,92
2022-10-24T16:09:11.310Z,92
2022-10-24T16:12:36.610Z,92
2022-10-24T16:16:01.763Z,92
2022-10-24T16:19:26.914Z,92
2022-10-24T16:22:52.136Z,92
2022-10-24T16:26:17.374Z,92
2022-10-24T16:29:42.640Z,92
2022-10-24T16:33:07.852Z,92
2022-10-24T16:36:33.060Z,92
2022-10-24T16:39:58.297Z,92
2022-10-24T16:43:23.562Z,92
2022-10-24T16:46:48.820Z,92
2022-10-24T16:50:14.023Z,92
2022-10-24T16:53:39.264Z,92
2022-10-24T16:57:04.466Z,92
2022-10-24T17:00:29.725Z,92
2022-10-24T17:03:54.942Z,92
2022-10-24T17:07:20.120Z,92
2022-10-24T17:10:45.330Z,92
2022-10-24T17:14:10.579Z,91
2022-10-24T17:17:35.855Z,91
2022-10-24T17:21:01.147Z,91
2022-10-24T17:24:27.231Z,91
2022-10-24T17:27:54.168Z,92
2022-10-24T17:31:19.344Z,92
2022-10-24T17:34:45.050Z,92
2022-10-24T17:38:10.352Z,92
2022-10-24T17:41:35.577Z,92
2022-10-24T17:45:00.912Z,92
2022-10-24T17:48:26.124Z,92
2022-10-24T17:51:51.340Z,92
2022-10-24T17:55:22.481Z,91
2022-10-24T17:58:41.837Z,92
2022-10-24T18:02:07.134Z,92
2022-10-24T18:05:32.300Z,92
2022-10-24T18:08:57.530Z,92
2022-10-24T18:12:22.774Z,93
2022-10-24T18:15:47.951Z,93
2022-10-24T18:19:13.263Z,93
2022-10-24T18:22:38.481Z,93
2022-10-24T18:26:03.713Z,93
2022-10-24T18:29:29.017Z,92
2022-10-24T18:32:54.183Z,92
2022-10-24T18:36:19.455Z,92
2022-10-24T18:39:44.674Z,92
2022-10-24T18:43:09.928Z,92
2022-10-24T18:46:35.186Z,92
2022-10-24T18:50:00.402Z,92
2022-10-24T18:53:25.621Z,92
2022-10-24T18:56:50.874Z,93
2022-10-24T19:00:16.110Z,93
2022-10-24T19:03:41.357Z,93
2022-10-24T19:07:06.568Z,92
2022-10-24T19:10:31.816Z,93
2022-10-24T19:13:57.019Z,92
2022-10-24T19:17:22.236Z,93
2022-10-24T19:20:47.469Z,93
2022-10-24T19:24:12.708Z,92
2022-10-24T19:27:37.920Z,93
2022-10-24T19:31:03.221Z,93
2022-10-24T19:34:28.430Z,93
2022-10-24T19:37:53.670Z,93
2022-10-24T19:41:18.865Z,93
2022-10-24T19:44:44.144Z,93
2022-10-24T19:48:09.333Z,93
2022-10-24T19:51:34.584Z,93
2022-10-24T19:54:59.885Z,93
2022-10-24T19:58:25.028Z,93
2022-10-24T20:01:50.385Z,93
2022-10-24T20:05:15.529Z,93
2022-10-24T20:08:40.711Z,93
2022-10-24T20:12:05.928Z,93
2022-10-24T20:15:31.118Z,93
2022-10-24T20:18:56.299Z,93
2022-10-24T20:22:21.501Z,93
2022-10-24T20:25:46.735Z,93
2022-10-24T20:29:11.913Z,93
2022-10-24T20:32:37.049Z,93
2022-10-24T20:36:02.228Z,93
2022-10-24T20:39:27.405Z,93
2022-10-24T20:42:52.597Z,93
2022-10-24T20:46:17.811Z,93
2022-10-24T20:49:42.965Z,93
2022-10-24T20:53:08.114Z,93
2022-10-24T20:56:33.262Z,94
2022-10-24T20:59:58.452Z,93
2022-10-24T21:03:23.636Z,93
2022-10-24T21:06:48.776Z,93
2022-10-24T21:10:13.953Z,93
2022-10-24T21:13:39.156Z,93
2022-10-24T21:17:04.321Z,93
2022-10-24T21:20:29.524Z,93
2022-10-24T21:23:54.666Z,93
2022-10-24T21:27:19.827Z,93
2022-10-24T21:30:45.004Z,93
2022-10-24T21:34:10.158Z,92
2022-10-24T21:37:35.377Z,93
2022-10-24T21:41:00.496Z,92
2022-10-24T21:44:25.675Z,92
2022-10-24T21:47:50.837Z,93
2022-10-24T21:51:16.014Z,93
2022-10-24T21:54:41.209Z,93
2022-10-24T21:58:06.369Z,93
2022-10-24T22:01:31.614Z,93
2022-10-24T22:04:56.691Z,93
2022-10-24T22:08:21.858Z,93
2022-10-24T22:11:47.047Z,92
2022-10-24T22:15:12.190Z,92
2022-10-24T22:18:37.332Z,93
2022-10-24T22:22:02.518Z,93
2022-10-24T22:25:27.721Z,93
2022-10-24T22:28:52.921Z,93
2022-10-24T22:32:18.101Z,93
2022-10-24T22:35:43.254Z,93
2022-10-24T22:39:08.426Z,93
2022-10-24T22:42:33.591Z,92
2022-10-24T22:45:58.790Z,93
2022-10-24T22:49:23.938Z,93
2022-10-24T22:52:49.280Z,93
2022-10-24T22:56:14.308Z,93
2022-10-24T22:59:39.501Z,92
2022-10-24T23:03:04.713Z,92
2022-10-24T23:06:29.876Z,92
2022-10-24T23:09:55.061Z,92
2022-10-24T23:13:20.244Z,92
2022-10-24T23:16:45.398Z,92
2022-10-24T23:20:10.589Z,92
2022-10-24T23:23:35.743Z,92
2022-10-24T23:27:00.930Z,92
2022-10-24T23:30:26.079Z,92
2022-10-24T23:33:51.252Z,92
2022-10-24T23:37:16.475Z,92
2022-10-24T23:40:41.609Z,92
2022-10-24T23:44:06.791Z,92
2022-10-24T23:47:32.009Z,92
2022-10-24T23:50:57.145Z,92
2022-10-24T23:54:22.353Z,91
2022-10-24T23:57:47.794Z,91
